sensor_id;sensor_type;location;lat;lon;timestamp;pressure;altitude;pressure_sealevel;temperature;humidity
54270;BME280;40181;51.560;13.000;2024-03-23T00:56:02;99911.66;;;10.86;100.00
54270;BME280;40181;51.560;13.000;2024-03-23T00:58:28;99900.28;;;10.98;100.00
54270;BME280;40181;51.560;13.000;2024-03-23T01:00:55;99898.53;;;10.96;100.00
54270;BME280;40181;51.560;13.000;2024-03-23T01:03:21;99900.28;;;10.86;100.00
54270;BME280;40181;51.560;13.000;2024-03-23T01:05:50;99895.06;;;11.04;100.00
54270;BME280;40181;51.560;13.000;2024-03-23T01:08:18;99888.91;;;10.99;100.00
54270;BME280;40181;51.560;13.000;2024-03-23T01:10:54;99884.50;;;11.06;100.00
54270;BME280;40181;51.560;13.000;2024-03-23T01:13:20;99882.78;;;10.97;100.00
54270;BME280;40181;51.560;13.000;2024-03-23T01:15:48;99876.66;;;11.04;100.00
54270;BME280;40181;51.560;13.000;2024-03-23T01:18:15;99879.25;;;10.87;100.00
54270;BME280;40181;51.560;13.000;2024-03-23T01:20:41;99873.13;;;10.96;100.00
54270;BME280;40181;51.560;13.000;2024-03-23T01:23:10;99872.25;;;10.92;100.00
54270;BME280;40181;51.560;13.000;2024-03-23T01:25:37;99874.81;;;10.58;100.00
54270;BME280;40181;51.560;13.000;2024-03-23T01:28:05;99867.88;;;10.95;100.00
54270;BME280;40181;51.560;13.000;2024-03-23T01:30:32;99843.34;;;11.06;100.00
54270;BME280;40181;51.560;13.000;2024-03-23T01:32:59;99846.00;;;11.13;100.00
54270;BME280;40181;51.560;13.000;2024-03-23T01:35:25;99831.09;;;11.10;100.00
54270;BME280;40181;51.560;13.000;2024-03-23T01:37:52;99825.84;;;11.21;100.00
54270;BME280;40181;51.560;13.000;2024-03-23T01:40:21;99813.53;;;11.25;100.00
54270;BME280;40181;51.560;13.000;2024-03-23T01:42:57;99828.44;;;11.23;100.00
54270;BME280;40181;51.560;13.000;2024-03-23T01:45:27;99816.19;;;11.14;100.00
54270;BME280;40181;51.560;13.000;2024-03-23T01:47:54;99819.72;;;11.03;100.00
54270;BME280;40181;51.560;13.000;2024-03-23T01:50:21;99816.19;;;11.09;100.00
54270;BME280;40181;51.560;13.000;2024-03-23T01:52:48;99813.56;;;11.00;100.00
54270;BME280;40181;51.560;13.000;2024-03-23T01:55:15;99821.47;;;11.00;100.00
54270;BME280;40181;51.560;13.000;2024-03-23T01:57:44;99822.31;;;10.72;100.00
54270;BME280;40181;51.560;13.000;2024-03-23T02:00:12;99828.25;;;10.07;100.00
54270;BME280;40181;51.560;13.000;2024-03-23T02:02:43;99822.97;;;10.00;100.00
54270;BME280;40181;51.560;13.000;2024-03-23T02:05:10;99828.28;;;10.14;100.00
54270;BME280;40181;51.560;13.000;2024-03-23T02:07:37;99813.38;;;10.06;100.00
54270;BME280;40181;51.560;13.000;2024-03-23T02:10:05;99817.63;;;9.68;100.00
54270;BME280;40181;51.560;13.000;2024-03-23T02:12:32;99814.03;;;9.59;100.00
54270;BME280;40181;51.560;13.000;2024-03-23T02:15:02;99821.22;;;9.95;100.00
54270;BME280;40181;51.560;13.000;2024-03-23T02:17:31;99803.69;;;9.87;100.00
54270;BME280;40181;51.560;13.000;2024-03-23T02:19:59;99797.41;;;9.55;100.00
54270;BME280;40181;51.560;13.000;2024-03-23T02:22:25;99803.56;;;9.59;100.00
54270;BME280;40181;51.560;13.000;2024-03-23T02:25:04;99801.84;;;9.70;100.00
54270;BME280;40181;51.560;13.000;2024-03-23T02:27:31;99794.78;;;9.47;100.00
54270;BME280;40181;51.560;13.000;2024-03-23T02:29:58;99782.53;;;9.46;100.00
54270;BME280;40181;51.560;13.000;2024-03-23T02:32:25;99783.38;;;9.42;100.00
54270;BME280;40181;51.560;13.000;2024-03-23T02:34:51;99773.75;;;9.44;100.00
54270;BME280;40181;51.560;13.000;2024-03-23T02:37:18;99761.63;;;9.65;100.00
54270;BME280;40181;51.560;13.000;2024-03-23T02:39:44;99764.22;;;9.57;100.00
54270;BME280;40181;51.560;13.000;2024-03-23T02:42:13;99767.75;;;9.67;100.00
54270;BME280;40181;51.560;13.000;2024-03-23T02:44:41;99769.38;;;9.43;100.00
54270;BME280;40181;51.560;13.000;2024-03-23T02:47:07;99771.19;;;9.52;100.00
54270;BME280;40181;51.560;13.000;2024-03-23T02:49:34;99772.03;;;9.41;100.00
54270;BME280;40181;51.560;13.000;2024-03-23T02:52:00;99763.38;;;9.61;100.00
54270;BME280;40181;51.560;13.000;2024-03-23T02:54:27;99776.44;;;9.58;100.00
54270;BME280;40181;51.560;13.000;2024-03-23T02:56:53;99758.09;;;9.57;100.00
54270;BME280;40181;51.560;13.000;2024-03-23T02:59:22;99755.47;;;9.60;100.00
54270;BME280;40181;51.560;13.000;2024-03-23T03:01:49;99752.91;;;9.66;100.00
54270;BME280;40181;51.560;13.000;2024-03-23T03:04:15;99742.34;;;9.50;100.00
54270;BME280;40181;51.560;13.000;2024-03-23T03:06:42;99755.47;;;9.58;100.00
54270;BME280;40181;51.560;13.000;2024-03-23T03:09:12;99750.25;;;9.63;100.00
54270;BME280;40181;51.560;13.000;2024-03-23T03:11:39;99753.72;;;9.51;100.00
54270;BME280;40181;51.560;13.000;2024-03-23T03:14:05;99751.97;;;9.56;100.00
54270;BME280;40181;51.560;13.000;2024-03-23T03:16:35;99745.84;;;9.51;100.00
54270;BME280;40181;51.560;13.000;2024-03-23T03:19:01;99741.47;;;9.51;100.00
54270;BME280;40181;51.560;13.000;2024-03-23T03:21:28;99737.97;;;9.49;100.00
54270;BME280;40181;51.560;13.000;2024-03-23T03:23:54;99727.50;;;9.62;100.00
54270;BME280;40181;51.560;13.000;2024-03-23T03:26:21;99719.69;;;9.71;100.00
54270;BME280;40181;51.560;13.000;2024-03-23T03:28:48;99715.28;;;9.61;100.00
54270;BME280;40181;51.560;13.000;2024-03-23T03:31:15;99718.78;;;9.57;100.00
54270;BME280;40181;51.560;13.000;2024-03-23T03:33:44;99713.53;;;9.64;100.00
54270;BME280;40181;51.560;13.000;2024-03-23T03:36:11;99726.59;;;9.46;100.00
54270;BME280;40181;51.560;13.000;2024-03-23T03:38:37;99711.72;;;9.41;100.00
54270;BME280;40181;51.560;13.000;2024-03-23T03:41:04;99711.56;;;9.15;100.00
54270;BME280;40181;51.560;13.000;2024-03-23T03:43:31;99705.59;;;9.38;100.00
54270;BME280;40181;51.560;13.000;2024-03-23T03:45:59;99711.72;;;9.43;100.00
54270;BME280;40181;51.560;13.000;2024-03-23T03:48:26;99703.00;;;9.50;100.00
54270;BME280;40181;51.560;13.000;2024-03-23T03:50:55;99704.75;;;9.50;100.00
54270;BME280;40181;51.560;13.000;2024-03-23T03:53:22;99695.16;;;9.57;100.00
54270;BME280;40181;51.560;13.000;2024-03-23T03:55:48;99702.16;;;9.53;100.00
54270;BME280;40181;51.560;13.000;2024-03-23T03:58:15;99701.19;;;9.32;100.00
54270;BME280;40181;51.560;13.000;2024-03-23T04:00:42;99702.13;;;9.44;100.00
54270;BME280;40181;51.560;13.000;2024-03-23T04:03:08;99687.31;;;9.61;100.00
54270;BME280;40181;51.560;13.000;2024-03-23T04:05:35;99693.47;;;9.74;100.00
54270;BME280;40181;51.560;13.000;2024-03-23T04:08:04;99696.94;;;9.65;100.00
54270;BME280;40181;51.560;13.000;2024-03-23T04:10:32;99682.00;;;9.44;100.00
54270;BME280;40181;51.560;13.000;2024-03-23T04:12:58;99661.94;;;9.51;100.00
54270;BME280;40181;51.560;13.000;2024-03-23T04:15:25;99661.94;;;9.54;100.00
54270;BME280;40181;51.560;13.000;2024-03-23T04:17:51;99663.69;;;9.58;100.00
54270;BME280;40181;51.560;13.000;2024-03-23T04:20:18;99646.16;;;9.37;100.00
54270;BME280;40181;51.560;13.000;2024-03-23T04:22:45;99639.22;;;9.51;100.00
54270;BME280;40181;51.560;13.000;2024-03-23T04:25:14;99640.09;;;9.50;100.00
54270;BME280;40181;51.560;13.000;2024-03-23T04:27:41;99627.84;;;9.52;100.00
54270;BME280;40181;51.560;13.000;2024-03-23T04:30:08;99644.44;;;9.51;100.00
54270;BME280;40181;51.560;13.000;2024-03-23T04:32:35;99646.16;;;9.40;100.00
54270;BME280;40181;51.560;13.000;2024-03-23T04:35:02;99641.81;;;9.50;100.00
54270;BME280;40181;51.560;13.000;2024-03-23T04:37:31;99644.38;;;9.25;100.00
54270;BME280;40181;51.560;13.000;2024-03-23T04:39:59;99650.50;;;9.24;100.00
54270;BME280;40181;51.560;13.000;2024-03-23T04:42:29;99640.97;;;9.46;100.00
54270;BME280;40181;51.560;13.000;2024-03-23T04:44:56;99635.72;;;9.52;100.00
54270;BME280;40181;51.560;13.000;2024-03-23T04:47:23;99618.22;;;9.48;100.00
54270;BME280;40181;51.560;13.000;2024-03-23T04:49:49;99619.13;;;9.58;100.00
54270;BME280;40181;51.560;13.000;2024-03-23T04:52:16;99613.81;;;9.29;100.00
54270;BME280;40181;51.560;13.000;2024-03-23T04:54:42;99603.34;;;9.44;100.00
54270;BME280;40181;51.560;13.000;2024-03-23T04:57:12;99571.03;;;9.51;100.00
54270;BME280;40181;51.560;13.000;2024-03-23T04:59:41;99548.31;;;9.55;100.00
54270;BME280;40181;51.560;13.000;2024-03-23T05:02:08;99564.91;;;9.37;100.00
54270;BME280;40181;51.560;13.000;2024-03-23T05:04:35;99546.56;;;9.37;100.00
54270;BME280;40181;51.560;13.000;2024-03-23T05:07:02;99531.69;;;9.36;100.00
54270;BME280;40181;51.560;13.000;2024-03-23T05:09:29;99529.94;;;9.30;100.00
54270;BME280;40181;51.560;13.000;2024-03-23T05:11:56;99539.56;;;9.40;100.00
54270;BME280;40181;51.560;13.000;2024-03-23T05:14:23;99549.19;;;9.49;100.00
54270;BME280;40181;51.560;13.000;2024-03-23T05:16:52;99550.06;;;9.51;100.00
54270;BME280;40181;51.560;13.000;2024-03-23T05:19:19;99553.56;;;9.53;100.00
54270;BME280;40181;51.560;13.000;2024-03-23T05:21:45;99546.56;;;9.45;100.00
54270;BME280;40181;51.560;13.000;2024-03-23T05:24:12;99539.56;;;9.50;100.00
54270;BME280;40181;51.560;13.000;2024-03-23T05:26:38;99522.97;;;9.54;100.00
54270;BME280;40181;51.560;13.000;2024-03-23T05:29:05;99519.47;;;9.33;100.00
54270;BME280;40181;51.560;13.000;2024-03-23T05:31:32;99505.50;;;9.44;100.00
54270;BME280;40181;51.560;13.000;2024-03-23T05:34:01;99495.00;;;9.30;100.00
54270;BME280;40181;51.560;13.000;2024-03-23T05:36:27;99498.47;;;9.30;100.00
54270;BME280;40181;51.560;13.000;2024-03-23T05:38:54;99477.50;;;9.27;100.00
54270;BME280;40181;51.560;13.000;2024-03-23T05:41:21;99471.41;;;9.20;100.00
54270;BME280;40181;51.560;13.000;2024-03-23T05:43:47;99494.97;;;9.23;100.00
54270;BME280;40181;51.560;13.000;2024-03-23T05:46:14;99499.38;;;9.32;100.00
54270;BME280;40181;51.560;13.000;2024-03-23T05:48:40;99495.00;;;9.42;100.00
54270;BME280;40181;51.560;13.000;2024-03-23T05:51:09;99485.41;;;9.38;100.00
54270;BME280;40181;51.560;13.000;2024-03-23T05:53:36;99480.16;;;9.46;100.00
54270;BME280;40181;51.560;13.000;2024-03-23T05:56:03;99470.53;;;9.35;100.00
54270;BME280;40181;51.560;13.000;2024-03-23T05:58:30;99460.03;;;9.38;100.00
54270;BME280;40181;51.560;13.000;2024-03-23T06:00:57;99456.53;;;9.18;100.00
54270;BME280;40181;51.560;13.000;2024-03-23T06:03:24;99466.16;;;9.28;100.00
54270;BME280;40181;51.560;13.000;2024-03-23T06:05:51;99471.41;;;9.20;100.00
54270;BME280;40181;51.560;13.000;2024-03-23T06:08:21;99458.28;;;9.28;100.00
54270;BME280;40181;51.560;13.000;2024-03-23T06:10:48;99458.28;;;9.19;100.00
54270;BME280;40181;51.560;13.000;2024-03-23T06:13:15;99446.97;;;9.27;100.00
54270;BME280;40181;51.560;13.000;2024-03-23T06:15:42;99446.06;;;9.30;100.00
54270;BME280;40181;51.560;13.000;2024-03-23T06:18:08;99453.94;;;9.24;100.00
54270;BME280;40181;51.560;13.000;2024-03-23T06:20:35;99439.94;;;9.17;100.00
54270;BME280;40181;51.560;13.000;2024-03-23T06:23:01;99432.09;;;9.16;100.00
54270;BME280;40181;51.560;13.000;2024-03-23T06:25:31;99422.47;;;9.11;100.00
54270;BME280;40181;51.560;13.000;2024-03-23T06:27:57;99437.31;;;9.00;100.00
54270;BME280;40181;51.560;13.000;2024-03-23T06:30:24;99441.66;;;8.92;100.00
54270;BME280;40181;51.560;13.000;2024-03-23T06:32:51;99450.44;;;9.11;100.00
54270;BME280;40181;51.560;13.000;2024-03-23T06:35:18;99446.91;;;9.09;100.00
54270;BME280;40181;51.560;13.000;2024-03-23T06:37:44;99428.59;;;9.12;100.00
54270;BME280;40181;51.560;13.000;2024-03-23T06:40:11;99425.97;;;9.17;100.00
54270;BME280;40181;51.560;13.000;2024-03-23T06:42:40;99426.84;;;9.14;100.00
54270;BME280;40181;51.560;13.000;2024-03-23T06:45:07;99412.81;;;8.81;100.00
54270;BME280;40181;51.560;13.000;2024-03-23T06:47:34;99410.22;;;8.92;100.00
54270;BME280;40181;51.560;13.000;2024-03-23T06:50:02;99402.34;;;9.04;100.00
54270;BME280;40181;51.560;13.000;2024-03-23T06:52:30;99405.84;;;8.98;100.00
54270;BME280;40181;51.560;13.000;2024-03-23T06:54:57;99401.44;;;8.82;100.00
54270;BME280;40181;51.560;13.000;2024-03-23T06:57:24;99393.66;;;8.96;100.00
54270;BME280;40181;51.560;13.000;2024-03-23T06:59:53;99405.88;;;9.00;100.00
54270;BME280;40181;51.560;13.000;2024-03-23T07:02:20;99396.25;;;8.94;100.00
54270;BME280;40181;51.560;13.000;2024-03-23T07:04:46;99394.47;;;8.81;100.00
54270;BME280;40181;51.560;13.000;2024-03-23T07:07:12;99405.81;;;8.75;100.00
54270;BME280;40181;51.560;13.000;2024-03-23T07:09:39;99390.13;;;8.74;100.00
54270;BME280;40181;51.560;13.000;2024-03-23T07:12:06;99399.69;;;8.67;100.00
54270;BME280;40181;51.560;13.000;2024-03-23T07:14:33;99385.72;;;8.68;100.00
54270;BME280;40181;51.560;13.000;2024-03-23T07:17:02;99360.41;;;8.54;100.00
54270;BME280;40181;51.560;13.000;2024-03-23T07:19:28;99351.72;;;8.79;100.00
54270;BME280;40181;51.560;13.000;2024-03-23T07:21:55;99342.97;;;8.70;100.00
54270;BME280;40181;51.560;13.000;2024-03-23T07:24:21;99340.34;;;8.53;100.00
54270;BME280;40181;51.560;13.000;2024-03-23T07:26:48;99349.09;;;8.76;100.00
54270;BME280;40181;51.560;13.000;2024-03-23T07:29:15;99343.81;;;8.68;100.00
54270;BME280;40181;51.560;13.000;2024-03-23T07:31:42;99351.66;;;8.58;100.00
54270;BME280;40181;51.560;13.000;2024-03-23T07:34:11;99332.47;;;8.58;100.00
54270;BME280;40181;51.560;13.000;2024-03-23T07:36:38;99326.31;;;8.40;100.00
54270;BME280;40181;51.560;13.000;2024-03-23T07:39:04;99316.69;;;8.36;100.00
54270;BME280;40181;51.560;13.000;2024-03-23T07:41:30;99330.66;;;8.49;100.00
54270;BME280;40181;51.560;13.000;2024-03-23T07:43:57;99326.25;;;8.20;100.00
54270;BME280;40181;51.560;13.000;2024-03-23T07:46:24;99329.72;;;8.17;100.00
54270;BME280;40181;51.560;13.000;2024-03-23T07:48:50;99318.38;;;8.23;100.00
54270;BME280;40181;51.560;13.000;2024-03-23T07:51:20;99314.06;;;8.21;100.00
54270;BME280;40181;51.560;13.000;2024-03-23T07:53:47;99309.63;;;8.06;100.00
54270;BME280;40181;51.560;13.000;2024-03-23T07:56:15;99292.22;;;8.11;100.00
54270;BME280;40181;51.560;13.000;2024-03-23T07:58:42;99297.34;;;7.80;100.00
54270;BME280;40181;51.560;13.000;2024-03-23T08:01:10;99300.88;;;7.99;100.00
54270;BME280;40181;51.560;13.000;2024-03-23T08:03:38;99299.00;;;7.68;100.00
54270;BME280;40181;51.560;13.000;2024-03-23T08:06:09;99306.97;;;7.90;100.00
54270;BME280;40181;51.560;13.000;2024-03-23T08:08:41;99312.06;;;7.64;100.00
54270;BME280;40181;51.560;13.000;2024-03-23T08:11:09;99323.44;;;7.77;100.00
54270;BME280;40181;51.560;13.000;2024-03-23T08:13:38;99319.09;;;7.77;100.00
54270;BME280;40181;51.560;13.000;2024-03-23T08:16:05;99309.41;;;7.59;100.00
54270;BME280;40181;51.560;13.000;2024-03-23T08:18:32;99295.44;;;7.51;100.00
54270;BME280;40181;51.560;13.000;2024-03-23T08:20:59;99289.31;;;7.48;100.00
54270;BME280;40181;51.560;13.000;2024-03-23T08:23:27;99318.75;;;7.19;100.00
54270;BME280;40181;51.560;13.000;2024-03-23T08:26:00;99310.09;;;7.22;100.00
54270;BME280;40181;51.560;13.000;2024-03-23T08:28:28;99312.72;;;7.30;100.00
54270;BME280;40181;51.560;13.000;2024-03-23T08:30:55;99312.59;;;7.11;100.00
54270;BME280;40181;51.560;13.000;2024-03-23T08:33:22;99307.28;;;6.97;100.00
54270;BME280;40181;51.560;13.000;2024-03-23T08:35:53;99322.88;;;6.91;100.00
54270;BME280;40181;51.560;13.000;2024-03-23T08:38:21;99332.56;;;7.00;100.00
54270;BME280;40181;51.560;13.000;2024-03-23T08:40:47;99362.94;;;6.93;100.00
54270;BME280;40181;51.560;13.000;2024-03-23T08:43:17;99360.38;;;6.96;100.00
54270;BME280;40181;51.560;13.000;2024-03-23T08:45:43;99406.22;;;6.71;100.00
54270;BME280;40181;51.560;13.000;2024-03-23T08:48:09;99436.41;;;6.44;100.00
54270;BME280;40181;51.560;13.000;2024-03-23T08:50:36;99433.63;;;6.31;100.00
54270;BME280;40181;51.560;13.000;2024-03-23T08:53:03;99442.84;;;6.07;100.00
54270;BME280;40181;51.560;13.000;2024-03-23T08:55:30;99437.84;;;6.23;100.00
54270;BME280;40181;51.560;13.000;2024-03-23T08:57:56;99450.50;;;5.95;100.00
54270;BME280;40181;51.560;13.000;2024-03-23T09:00:26;99451.59;;;6.11;100.00
54270;BME280;40181;51.560;13.000;2024-03-23T09:02:52;99469.84;;;6.11;100.00
54270;BME280;40181;51.560;13.000;2024-03-23T09:05:19;99482.59;;;5.91;100.00
54270;BME280;40181;51.560;13.000;2024-03-23T09:07:45;99487.91;;;5.99;100.00
54270;BME280;40181;51.560;13.000;2024-03-23T09:10:14;99503.97;;;5.71;100.00
54270;BME280;40181;51.560;13.000;2024-03-23T09:12:41;99503.69;;;5.51;100.00
54270;BME280;40181;51.560;13.000;2024-03-23T09:15:07;99510.69;;;5.55;100.00
54270;BME280;40181;51.560;13.000;2024-03-23T09:17:37;99516.22;;;5.23;100.00
54270;BME280;40181;51.560;13.000;2024-03-23T09:20:04;99505.97;;;5.34;100.00
54270;BME280;40181;51.560;13.000;2024-03-23T09:22:31;99515.56;;;5.36;100.00
54270;BME280;40181;51.560;13.000;2024-03-23T09:24:58;99517.41;;;4.94;100.00
54270;BME280;40181;51.560;13.000;2024-03-23T09:27:24;99524.69;;;5.12;100.00
54270;BME280;40181;51.560;13.000;2024-03-23T09:29:51;99534.19;;;5.10;100.00
54270;BME280;40181;51.560;13.000;2024-03-23T09:32:17;99546.72;;;4.85;100.00
54270;BME280;40181;51.560;13.000;2024-03-23T09:34:46;99550.75;;;5.14;100.00
54270;BME280;40181;51.560;13.000;2024-03-23T09:37:13;99564.16;;;4.90;100.00
54270;BME280;40181;51.560;13.000;2024-03-23T09:39:39;99579.94;;;4.97;100.00
54270;BME280;40181;51.560;13.000;2024-03-23T09:42:06;99577.31;;;4.96;100.00
54270;BME280;40181;51.560;13.000;2024-03-23T09:44:33;99572.53;;;5.18;100.00
54270;BME280;40181;51.560;13.000;2024-03-23T09:47:01;99572.47;;;5.15;100.00
54270;BME280;40181;51.560;13.000;2024-03-23T09:49:29;99582.09;;;5.19;100.00
54270;BME280;40181;51.560;13.000;2024-03-23T09:51:58;99597.00;;;5.26;100.00
54270;BME280;40181;51.560;13.000;2024-03-23T09:54:25;99599.19;;;5.06;100.00
54270;BME280;40181;51.560;13.000;2024-03-23T09:56:51;99592.63;;;5.25;100.00
54270;BME280;40181;51.560;13.000;2024-03-23T09:59:18;99595.34;;;4.88;100.00
54270;BME280;40181;51.560;13.000;2024-03-23T10:01:44;99580.69;;;4.92;100.00
54270;BME280;40181;51.560;13.000;2024-03-23T10:04:11;99585.00;;;4.90;100.00
54270;BME280;40181;51.560;13.000;2024-03-23T10:07:10;99600.09;;;5.06;100.00
54270;BME280;40181;51.560;13.000;2024-03-23T10:09:38;99604.50;;;5.10;100.00
54270;BME280;40181;51.560;13.000;2024-03-23T10:12:09;99618.22;;;5.03;100.00
54270;BME280;40181;51.560;13.000;2024-03-23T10:14:36;99628.47;;;5.37;100.00
54270;BME280;40181;51.560;13.000;2024-03-23T10:17:15;99653.34;;;5.22;100.00
54270;BME280;40181;51.560;13.000;2024-03-23T10:19:43;99662.38;;;5.40;100.00
54270;BME280;40181;51.560;13.000;2024-03-23T10:22:13;99671.84;;;5.36;100.00
54270;BME280;40181;51.560;13.000;2024-03-23T10:24:43;99653.38;;;5.25;100.00
54270;BME280;40181;51.560;13.000;2024-03-23T10:27:15;99645.09;;;5.44;100.00
54270;BME280;40181;51.560;13.000;2024-03-23T10:29:43;99647.28;;;5.68;100.00
54270;BME280;40181;51.560;13.000;2024-03-23T10:32:10;99658.16;;;5.47;100.00
54270;BME280;40181;51.560;13.000;2024-03-23T10:34:38;99668.47;;;5.42;100.00
54270;BME280;40181;51.560;13.000;2024-03-23T10:37:06;99679.25;;;5.16;100.00
54270;BME280;40181;51.560;13.000;2024-03-23T10:39:37;99689.75;;;5.19;100.00
54270;BME280;40181;51.560;13.000;2024-03-23T10:42:06;99703.84;;;5.31;100.00
54270;BME280;40181;51.560;13.000;2024-03-23T10:44:34;99732.56;;;5.32;100.00
54270;BME280;40181;51.560;13.000;2024-03-23T10:47:01;99722.25;;;5.38;100.00
54270;BME280;40181;51.560;13.000;2024-03-23T10:49:29;99722.84;;;5.26;100.00
54270;BME280;40181;51.560;13.000;2024-03-23T10:51:59;99731.19;;;5.10;100.00
54270;BME280;40181;51.560;13.000;2024-03-23T10:54:28;99734.72;;;5.12;100.00
54270;BME280;40181;51.560;13.000;2024-03-23T10:57:02;99738.56;;;5.30;100.00
54270;BME280;40181;51.560;13.000;2024-03-23T10:59:31;99744.13;;;5.07;100.00
54270;BME280;40181;51.560;13.000;2024-03-23T11:01:59;99760.16;;;4.87;100.00
54270;BME280;40181;51.560;13.000;2024-03-23T11:04:33;99764.97;;;5.07;100.00
54270;BME280;40181;51.560;13.000;2024-03-23T11:07:00;99770.53;;;4.84;100.00
54270;BME280;40181;51.560;13.000;2024-03-23T11:09:40;99777.97;;;5.05;100.00
54270;BME280;40181;51.560;13.000;2024-03-23T11:12:30;99781.13;;;5.32;100.00
54270;BME280;40181;51.560;13.000;2024-03-23T11:15:00;99790.81;;;4.99;100.00
54270;BME280;40181;51.560;13.000;2024-03-23T11:17:28;99795.91;;;4.94;100.00
54270;BME280;40181;51.560;13.000;2024-03-23T11:19:57;99811.13;;;4.77;100.00
54270;BME280;40181;51.560;13.000;2024-03-23T11:22:38;99811.06;;;5.12;100.00
54270;BME280;40181;51.560;13.000;2024-03-23T11:25:13;99815.53;;;5.17;100.00
54270;BME280;40181;51.560;13.000;2024-03-23T11:27:43;99818.19;;;5.20;100.00
54270;BME280;40181;51.560;13.000;2024-03-23T11:30:12;99814.41;;;5.05;100.00
54270;BME280;40181;51.560;13.000;2024-03-23T11:32:40;99819.00;;;4.80;100.00
54270;BME280;40181;51.560;13.000;2024-03-23T11:35:08;99815.84;;;4.92;100.00
54270;BME280;40181;51.560;13.000;2024-03-23T11:37:35;99809.38;;;5.13;100.00
54270;BME280;40181;51.560;13.000;2024-03-23T11:40:16;99817.59;;;4.95;100.00
54270;BME280;40181;51.560;13.000;2024-03-23T11:42:46;99824.34;;;5.23;100.00
54270;BME280;40181;51.560;13.000;2024-03-23T11:45:13;99838.06;;;5.16;100.00
54270;BME280;40181;51.560;13.000;2024-03-23T11:47:40;99820.09;;;5.27;100.00
54270;BME280;40181;51.560;13.000;2024-03-23T11:50:07;99818.75;;;5.45;100.00
54270;BME280;40181;51.560;13.000;2024-03-23T11:52:34;99814.66;;;5.54;100.00
54270;BME280;40181;51.560;13.000;2024-03-23T11:55:05;99812.50;;;5.36;100.00
54270;BME280;40181;51.560;13.000;2024-03-23T11:57:32;99807.63;;;5.52;100.00
54270;BME280;40181;51.560;13.000;2024-03-23T12:00:02;99803.28;;;5.51;100.00
54270;BME280;40181;51.560;13.000;2024-03-23T12:02:46;99806.09;;;5.60;100.00
54270;BME280;40181;51.560;13.000;2024-03-23T12:05:14;99813.38;;;5.77;99.94
54270;BME280;40181;51.560;13.000;2024-03-23T12:07:41;99799.91;;;6.00;100.00
54270;BME280;40181;51.560;13.000;2024-03-23T12:10:08;99802.91;;;6.18;100.00
54270;BME280;40181;51.560;13.000;2024-03-23T12:12:35;99805.59;;;6.21;99.98
54270;BME280;40181;51.560;13.000;2024-03-23T12:15:06;99791.88;;;6.32;100.00
54270;BME280;40181;51.560;13.000;2024-03-23T12:17:34;99789.31;;;6.35;98.78
54270;BME280;40181;51.560;13.000;2024-03-23T12:20:01;99789.03;;;6.19;100.00
54270;BME280;40181;51.560;13.000;2024-03-23T12:22:29;99800.59;;;6.34;99.65
54270;BME280;40181;51.560;13.000;2024-03-23T12:24:55;99778.47;;;6.61;99.46
54270;BME280;40181;51.560;13.000;2024-03-23T12:27:22;99796.50;;;6.47;98.52
54270;BME280;40181;51.560;13.000;2024-03-23T12:29:49;99789.34;;;6.38;97.60
54270;BME280;40181;51.560;13.000;2024-03-23T12:32:18;99797.19;;;6.89;98.26
54270;BME280;40181;51.560;13.000;2024-03-23T12:34:45;99793.16;;;7.08;98.36
54270;BME280;40181;51.560;13.000;2024-03-23T12:37:12;99789.91;;;7.26;98.31
54270;BME280;40181;51.560;13.000;2024-03-23T12:39:39;99790.44;;;7.02;96.64
54270;BME280;40181;51.560;13.000;2024-03-23T12:42:06;99810.13;;;6.81;96.96
54270;BME280;40181;51.560;13.000;2024-03-23T12:44:32;99786.81;;;6.94;97.86
54270;BME280;40181;51.560;13.000;2024-03-23T12:46:59;99795.72;;;7.06;97.94
54270;BME280;40181;51.560;13.000;2024-03-23T12:49:28;99800.31;;;7.25;95.48
54270;BME280;40181;51.560;13.000;2024-03-23T12:51:56;99802.72;;;7.11;94.45
54270;BME280;40181;51.560;13.000;2024-03-23T12:54:23;99805.69;;;6.77;91.89
54270;BME280;40181;51.560;13.000;2024-03-23T12:56:50;99799.44;;;7.23;93.75
54270;BME280;40181;51.560;13.000;2024-03-23T12:59:16;99794.22;;;7.23;93.72
54270;BME280;40181;51.560;13.000;2024-03-23T13:01:43;99799.56;;;7.32;94.90
54270;BME280;40181;51.560;13.000;2024-03-23T13:04:09;99792.84;;;7.48;94.04
54270;BME280;40181;51.560;13.000;2024-03-23T13:06:38;99780.47;;;7.36;91.07
54270;BME280;40181;51.560;13.000;2024-03-23T13:09:05;99774.53;;;7.46;90.28
54270;BME280;40181;51.560;13.000;2024-03-23T13:11:31;99778.38;;;7.75;93.28
54270;BME280;40181;51.560;13.000;2024-03-23T13:13:58;99767.22;;;7.90;91.49
54270;BME280;40181;51.560;13.000;2024-03-23T13:16:25;99770.94;;;8.14;90.53
54270;BME280;40181;51.560;13.000;2024-03-23T13:18:51;99767.09;;;7.79;87.21
54270;BME280;40181;51.560;13.000;2024-03-23T13:21:18;99766.59;;;8.13;86.82
54270;BME280;40181;51.560;13.000;2024-03-23T13:23:48;99769.38;;;8.30;83.50
54270;BME280;40181;51.560;13.000;2024-03-23T13:26:15;99774.38;;;8.07;82.54
54270;BME280;40181;51.560;13.000;2024-03-23T13:28:42;99775.25;;;8.10;82.36
54270;BME280;40181;51.560;13.000;2024-03-23T13:31:08;99768.44;;;8.22;80.71
54270;BME280;40181;51.560;13.000;2024-03-23T13:33:35;99776.28;;;8.23;81.80
54270;BME280;40181;51.560;13.000;2024-03-23T13:36:02;99770.53;;;8.55;82.50
54270;BME280;40181;51.560;13.000;2024-03-23T13:38:29;99782.16;;;8.00;79.56
54270;BME280;40181;51.560;13.000;2024-03-23T13:40:59;99763.31;;;8.37;79.42
54270;BME280;40181;51.560;13.000;2024-03-23T13:43:27;99777.19;;;8.27;78.94
54270;BME280;40181;51.560;13.000;2024-03-23T13:45:55;99765.03;;;8.29;76.72
54270;BME280;40181;51.560;13.000;2024-03-23T13:48:24;99764.91;;;8.18;76.90